createdAt,value
2019-04-11T00:01:54.598Z,101747.45
2019-04-11T00:04:24.599Z,101755.25
2019-04-11T00:06:54.692Z,101755.67
2019-04-11T00:09:24.967Z,101757.84
2019-04-11T00:11:55.114Z,101757.88
2019-04-11T00:14:25.123Z,101765.23
2019-04-11T00:16:55.422Z,101767.83
2019-04-11T00:19:25.415Z,101767.84
2019-04-11T00:21:55.422Z,101769.56
2019-04-11T00:24:25.416Z,101777.80
2019-04-11T00:26:55.416Z,101787.75
2019-04-11T00:29:26.093Z,101779.52
2019-04-11T00:31:57.009Z,101785.60
2019-04-11T00:34:27.112Z,101789.92
2019-04-11T00:36:57.100Z,101789.91
2019-04-11T00:39:27.844Z,101791.20
2019-04-11T00:41:58.693Z,101799.84
2019-04-11T00:44:28.665Z,101804.17
2019-04-11T00:46:58.652Z,101789.91
2019-04-11T00:49:28.649Z,101803.34
2019-04-11T00:51:58.682Z,101807.66
2019-04-11T00:54:29.045Z,101802.89
2019-04-11T00:56:59.049Z,101805.50
2019-04-11T00:59:30.188Z,101813.72
2019-04-11T01:02:00.974Z,101816.73
2019-04-11T01:04:31.160Z,101809.83
2019-04-11T01:07:01.285Z,101811.54
2019-04-11T01:09:32.605Z,101813.27
2019-04-11T01:12:02.836Z,101824.09
2019-04-11T01:14:34.055Z,101820.62
2019-04-11T01:17:07.830Z,101819.78
2019-04-11T01:19:38.597Z,101826.26
2019-04-11T01:22:09.831Z,101826.23
2019-04-11T01:24:40.028Z,101821.92
2019-04-11T01:27:10.039Z,101826.23
2019-04-11T01:29:40.117Z,101831.86
2019-04-11T01:32:11.976Z,101824.50
2019-04-11T01:34:42.585Z,101824.92
2019-04-11T01:37:12.662Z,101830.11
2019-04-11T01:39:50.290Z,101840.90
2019-04-11T01:42:20.554Z,101839.63
2019-04-11T01:44:50.551Z,101840.05
2019-04-11T01:47:40.721Z,101846.53
2019-04-11T01:50:12.598Z,101847.34
2019-04-11T01:52:42.670Z,101848.17
2019-04-11T01:55:14.416Z,101853.33
2019-04-11T01:57:44.671Z,101847.74
2019-04-11T02:00:34.449Z,101849.44
2019-04-11T02:03:06.806Z,101849.39
2019-04-11T02:05:37.022Z,101858.53
2019-04-11T02:08:07.199Z,101858.94
2019-04-11T02:10:37.156Z,101854.19
2019-04-11T02:13:07.854Z,101860.70
2019-04-11T02:15:38.679Z,101858.13
2019-04-11T02:18:08.782Z,101864.95
2019-04-11T02:20:39.051Z,101855.06
2019-04-11T02:23:20.062Z,101864.09
2019-04-11T02:25:52.933Z,101863.66
2019-04-11T02:28:22.929Z,101862.81
2019-04-11T02:30:56.242Z,101868.84
2019-04-11T02:33:27.107Z,101875.31
2019-04-11T02:35:57.339Z,101874.91
2019-04-11T02:38:28.427Z,101877.06
2019-04-11T02:40:58.675Z,101877.05
2019-04-11T02:43:29.600Z,101876.98
2019-04-11T02:46:12.569Z,101875.30
2019-04-11T02:48:33.045Z,101871.42
2019-04-11T02:51:05.231Z,101874.84
2019-04-11T02:53:36.759Z,101876.22
2019-04-11T02:56:09.265Z,101873.55
2019-04-11T02:58:40.007Z,101878.73
2019-04-11T03:01:12.294Z,101879.23
2019-04-11T03:03:42.448Z,101874.00
2019-04-11T03:06:12.811Z,101877.87
2019-04-11T03:08:43.652Z,101881.30
2019-04-11T03:11:14.393Z,101878.27
2019-04-11T03:13:48.281Z,101876.11
2019-04-11T03:16:32.918Z,101877.00
2019-04-11T03:19:08.526Z,101875.66
2019-04-11T03:21:23.863Z,101877.40
2019-04-11T03:23:53.909Z,101874.33
2019-04-11T03:26:25.035Z,101872.66
2019-04-11T03:28:57.449Z,101875.56
2019-04-11T03:32:04.763Z,101877.24
2019-04-11T03:34:53.377Z,101885.85
2019-04-11T03:37:15.857Z,101880.64
2019-04-11T03:39:25.313Z,101884.13
2019-04-11T03:41:54.710Z,101900.52
2019-04-11T03:44:16.790Z,101884.04
2019-04-11T03:46:55.765Z,101884.06
2019-04-11T03:49:25.438Z,101897.02
2019-04-11T03:51:47.904Z,101894.83
2019-04-11T03:54:17.943Z,101896.52
2019-04-11T03:56:49.315Z,101897.45
2019-04-11T03:59:23.396Z,101894.45
2019-04-11T04:01:54.274Z,101897.76
2019-04-11T04:04:26.336Z,101895.20
2019-04-11T04:06:58.279Z,101899.09
2019-04-11T04:09:29.515Z,101899.95
2019-04-11T04:11:59.784Z,101904.81
2019-04-11T04:14:32.590Z,101904.81
2019-04-11T04:17:06.943Z,101902.66
2019-04-11T04:19:56.587Z,101908.61
2019-04-11T04:22:31.607Z,101905.24
2019-04-11T04:25:04.305Z,101913.26
2019-04-11T04:27:34.778Z,101912.13
2019-04-11T04:30:08.605Z,101917.30
2019-04-11T04:32:40.463Z,101917.14
2019-04-11T04:35:16.816Z,101922.91
2019-04-11T04:37:45.377Z,101928.48
2019-04-11T04:40:31.465Z,101931.57
2019-04-11T04:42:52.114Z,101932.84
2019-04-11T04:45:19.801Z,101932.73
2019-04-11T04:47:56.596Z,101929.88
2019-04-11T04:50:24.463Z,101929.88
2019-04-11T04:52:55.880Z,101933.36
2019-04-11T04:55:28.579Z,101934.71
2019-04-11T04:57:59.789Z,101939.48
2019-04-11T05:00:31.961Z,101939.46
2019-04-11T05:03:02.440Z,101943.89
2019-04-11T05:05:33.839Z,101939.54
2019-04-11T05:08:05.957Z,101940.02
2019-04-11T05:10:36.032Z,101940.03
2019-04-11T05:13:07.639Z,101946.55
2019-04-11T05:15:38.690Z,101940.59
2019-04-11T05:18:11.123Z,101946.69
2019-04-11T05:20:40.716Z,101946.27
2019-04-11T05:23:11.722Z,101944.97
2019-04-11T05:25:42.524Z,101954.07
2019-04-11T05:28:12.654Z,101948.92
2019-04-11T05:30:42.672Z,101949.77
2019-04-11T05:33:13.617Z,101961.50
2019-04-11T05:35:43.832Z,101962.37
2019-04-11T05:38:13.876Z,101965.91
2019-04-11T05:40:43.952Z,101965.47
2019-04-11T05:43:13.928Z,101962.91
2019-04-11T05:45:43.962Z,101966.43
2019-04-11T05:48:15.736Z,101965.13
2019-04-11T05:50:50.480Z,101964.26
2019-04-11T05:53:19.938Z,101963.85
2019-04-11T05:55:49.273Z,101966.03
2019-04-11T05:58:19.636Z,101969.07
2019-04-11T06:00:58.314Z,101973.84
2019-04-11T06:03:30.260Z,101969.95
2019-04-11T06:06:18.415Z,101974.73
2019-04-11T06:08:49.596Z,101975.16
2019-04-11T06:11:24.170Z,101969.53
2019-04-11T06:14:13.114Z,101973.00
2019-04-11T06:16:49.474Z,101973.41
2019-04-11T06:19:37.551Z,101976.00
2019-04-11T06:22:09.355Z,101979.48
2019-04-11T06:24:48.210Z,101981.60
2019-04-11T06:27:20.058Z,101984.63
2019-04-11T06:30:07.878Z,101988.53
2019-04-11T06:32:40.276Z,101989.82
2019-04-11T06:35:30.413Z,101988.97
2019-04-11T06:38:06.068Z,101986.37
2019-04-11T06:40:41.659Z,101988.50
2019-04-11T06:43:30.157Z,101988.45
2019-04-11T06:46:18.783Z,102001.47
2019-04-11T06:48:56.395Z,101989.68
2019-04-11T06:51:28.200Z,101988.28
2019-04-11T06:54:02.629Z,101997.79
2019-04-11T06:56:34.894Z,101988.36
2019-04-11T06:59:06.568Z,101990.55
2019-04-11T07:01:36.759Z,101996.11
2019-04-11T07:04:09.235Z,101991.67
2019-04-11T07:06:41.883Z,101996.06
2019-04-11T07:09:16.709Z,101996.95
2019-04-11T07:11:48.586Z,101992.52
2019-04-11T07:14:39.690Z,101999.74
2019-04-11T07:17:27.830Z,101996.19
2019-04-11T07:20:06.628Z,102005.30
2019-04-11T07:22:55.586Z,102004.29
2019-04-11T07:25:27.220Z,102006.37
2019-04-11T07:28:03.687Z,102002.66
2019-04-11T07:30:51.860Z,102008.67
2019-04-11T07:33:29.061Z,102010.81
2019-04-11T07:36:18.410Z,102010.87
2019-04-11T07:38:59.056Z,102016.91
2019-04-11T07:41:38.537Z,102019.34
2019-04-11T07:44:19.773Z,102008.84
2019-04-11T07:47:17.083Z,102007.48
2019-04-11T07:49:46.602Z,102015.19
2019-04-11T07:52:18.286Z,102014.97
2019-04-11T07:54:48.387Z,102018.22
2019-04-11T07:57:32.037Z,102010.14
2019-04-11T08:00:33.238Z,102015.34
2019-04-11T08:02:59.971Z,102013.47
2019-04-11T08:05:34.697Z,102022.03
2019-04-11T08:08:15.486Z,102026.11
2019-04-11T08:10:52.973Z,102017.70
2019-04-11T08:13:36.820Z,102021.84
2019-04-11T08:16:23.787Z,102019.73
2019-04-11T08:19:13.093Z,102021.21
2019-04-11T08:21:56.995Z,102024.16
2019-04-11T08:24:37.847Z,102025.88
2019-04-11T08:27:27.848Z,102016.45
2019-04-11T08:30:00.360Z,102018.14
2019-04-11T08:32:46.310Z,102015.69
2019-04-11T08:35:37.477Z,102012.94
2019-04-11T08:38:12.173Z,102023.06
2019-04-11T08:40:47.161Z,102019.48
2019-04-11T08:43:28.923Z,102021.31
2019-04-11T08:46:13.116Z,102022.93
2019-04-11T08:48:51.209Z,102017.27
2019-04-11T08:51:23.285Z,102017.89
2019-04-11T08:54:11.353Z,102016.83
2019-04-11T08:56:43.206Z,102015.97
2019-04-11T08:59:17.300Z,102012.59
2019-04-11T09:01:48.534Z,102016.16
2019-04-11T09:04:36.599Z,102016.97
2019-04-11T09:07:07.335Z,102013.33
2019-04-11T09:09:55.680Z,102007.31
2019-04-11T09:12:26.754Z,102010.84
2019-04-11T09:15:02.116Z,102013.36
2019-04-11T09:17:34.526Z,102019.05
2019-04-11T09:20:23.460Z,102017.95
2019-04-11T09:22:55.471Z,102022.63
2019-04-11T09:25:37.041Z,102017.94
2019-04-11T09:28:09.216Z,102021.93
2019-04-11T09:30:41.185Z,102017.52
2019-04-11T09:33:29.218Z,102018.42
2019-04-11T09:36:17.298Z,102017.33
2019-04-11T09:38:48.963Z,102019.87
2019-04-11T09:41:24.682Z,102019.87
2019-04-11T09:43:56.451Z,102011.81
2019-04-11T09:46:41.203Z,102009.97
2019-04-11T09:49:17.103Z,102015.58
2019-04-11T09:51:49.797Z,102017.52
2019-04-11T09:54:21.709Z,102009.84
2019-04-11T09:57:00.253Z,102012.50
2019-04-11T09:59:47.669Z,102012.37
2019-04-11T10:02:35.470Z,102008.13
2019-04-11T10:05:07.775Z,102013.27
2019-04-11T10:07:52.386Z,102000.99
2019-04-11T10:10:43.378Z,102004.69
2019-04-11T10:13:18.452Z,101995.35
2019-04-11T10:16:07.514Z,102005.37
2019-04-11T10:18:41.188Z,102000.50
2019-04-11T10:21:13.744Z,102000.61
2019-04-11T10:23:49.294Z,101994.92
2019-04-11T10:26:20.238Z,101991.16
2019-04-11T10:28:55.820Z,101991.33
2019-04-11T10:31:26.288Z,101994.09
2019-04-11T10:33:58.021Z,101994.56
2019-04-11T10:36:29.950Z,101989.77
2019-04-11T10:39:18.622Z,102003.55
2019-04-11T10:41:50.984Z,101997.66
2019-04-11T10:44:23.541Z,101996.23
2019-04-11T10:46:58.482Z,102000.69
2019-04-11T10:49:46.246Z,102008.91
2019-04-11T10:52:18.195Z,102006.86
2019-04-11T10:55:13.691Z,102007.75
2019-04-11T10:57:46.581Z,102013.00
2019-04-11T11:00:24.340Z,102008.21
2019-04-11T11:03:01.970Z,102002.95
2019-04-11T11:05:34.620Z,102006.95
2019-04-11T11:08:06.857Z,102001.89
2019-04-11T11:10:39.724Z,102006.42
2019-04-11T11:13:29.885Z,101995.98
2019-04-11T11:16:00.173Z,101995.09
2019-04-11T11:19:15.739Z,101991.90
2019-04-11T11:21:19.791Z,101987.47
2019-04-11T11:24:09.223Z,101992.79
2019-04-11T11:26:39.561Z,101988.59
2019-04-11T11:29:15.185Z,102000.97
2019-04-11T11:31:45.913Z,101992.77
2019-04-11T11:34:21.237Z,101992.05
2019-04-11T11:36:55.065Z,101989.90
2019-04-11T11:39:28.216Z,101984.33
2019-04-11T11:42:16.094Z,101979.97
2019-04-11T11:44:53.676Z,101974.62
2019-04-11T11:47:44.831Z,101971.05
2019-04-11T11:50:18.159Z,101973.83
2019-04-11T11:52:45.570Z,101973.61
2019-04-11T11:55:20.424Z,101964.91
2019-04-11T11:57:53.098Z,101969.03
2019-04-11T12:00:25.042Z,101960.22
2019-04-11T12:03:05.210Z,101959.66
2019-04-11T12:05:37.099Z,101969.00
2019-04-11T12:08:12.247Z,101963.07
2019-04-11T12:10:43.840Z,101960.20
2019-04-11T12:13:24.257Z,101950.47
2019-04-11T12:16:07.952Z,101955.63
2019-04-11T12:18:55.825Z,101954.87
2019-04-11T12:21:36.749Z,101951.05
2019-04-11T12:24:17.571Z,101952.14
2019-04-11T12:26:56.053Z,101952.91
2019-04-11T12:29:47.005Z,101953.88
2019-04-11T12:32:26.294Z,101965.44
2019-04-11T12:34:58.023Z,101969.91
2019-04-11T12:37:33.615Z,101970.49
2019-04-11T12:40:09.741Z,101962.94
2019-04-11T12:42:41.212Z,101964.13
2019-04-11T12:45:22.784Z,101963.23
2019-04-11T12:47:52.818Z,101958.99
2019-04-11T12:50:27.581Z,101951.42
2019-04-11T12:53:01.888Z,101948.89
2019-04-11T12:55:33.525Z,101949.17
2019-04-11T12:58:10.943Z,101936.92
2019-04-11T13:01:02.309Z,101937.30
2019-04-11T13:03:34.036Z,101938.62
2019-04-11T13:06:22.199Z,101928.70
2019-04-11T13:09:05.740Z,101928.15
2019-04-11T13:11:41.863Z,101922.58
2019-04-11T13:14:14.556Z,101923.54
2019-04-11T13:16:46.284Z,101926.34
2019-04-11T13:19:33.005Z,101924.70
2019-04-11T13:22:04.880Z,101919.75
2019-04-11T13:24:39.312Z,101915.45
2019-04-11T13:27:17.077Z,101922.35
2019-04-11T13:29:54.782Z,101921.65
2019-04-11T13:32:29.427Z,101922.27
2019-04-11T13:35:01.133Z,101919.50
2019-04-11T13:37:49.224Z,101914.34
2019-04-11T13:40:30.120Z,101911.22
2019-04-11T13:43:18.011Z,101911.87
2019-04-11T13:46:01.728Z,101916.91
2019-04-11T13:48:52.882Z,101911.23
2019-04-11T13:51:27.266Z,101916.11
2019-04-11T13:54:17.459Z,101924.25
2019-04-11T13:57:05.832Z,101917.33
2019-04-11T13:59:37.462Z,101912.48
2019-04-11T14:02:15.005Z,101914.06
2019-04-11T14:04:56.608Z,101909.33
2019-04-11T14:07:34.179Z,101911.08
2019-04-11T14:10:06.793Z,101904.07
2019-04-11T14:12:37.472Z,101903.98
2019-04-11T14:15:09.350Z,101899.25
2019-04-11T14:17:57.577Z,101896.09
2019-04-11T14:20:30.313Z,101893.28
2019-04-11T14:23:04.897Z,101893.16
2019-04-11T14:25:45.527Z,101888.45
2019-04-11T14:28:17.254Z,101888.48
2019-04-11T14:30:54.696Z,101881.78
2019-04-11T14:33:27.264Z,101881.03
2019-04-11T14:35:59.585Z,101881.28
2019-04-11T14:38:31.977Z,101882.73
2019-04-11T14:41:15.233Z,101883.78
2019-04-11T14:43:50.640Z,101883.42
2019-04-11T14:46:38.443Z,101887.34
2019-04-11T14:49:10.445Z,101889.08
2019-04-11T14:51:43.994Z,101886.52
2019-04-11T14:54:18.261Z,101882.57
2019-04-11T14:57:05.054Z,101882.80
2019-04-11T14:59:42.468Z,101885.25
2019-04-11T15:02:16.814Z,101887.02
2019-04-11T15:04:53.999Z,101891.86
2019-04-11T15:07:23.988Z,101886.39
2019-04-11T15:10:01.715Z,101881.00
2019-04-11T15:12:39.646Z,101884.31
2019-04-11T15:15:19.281Z,101877.44
2019-04-11T15:17:50.232Z,101876.30
2019-04-11T15:20:33.787Z,101876.34
2019-04-11T15:23:06.660Z,101872.27
2019-04-11T15:25:43.583Z,101877.27
2019-04-11T15:28:31.754Z,101876.53
2019-04-11T15:31:18.530Z,101874.24
2019-04-11T15:33:59.325Z,101866.23
2019-04-11T15:36:30.607Z,101868.50
2019-04-11T15:39:18.393Z,101870.80
2019-04-11T15:41:50.104Z,101867.53
2019-04-11T15:44:38.487Z,101868.63
2019-04-11T15:47:10.119Z,101864.45
2019-04-11T15:50:00.515Z,101872.84
2019-04-11T15:52:29.655Z,101869.11
2019-04-11T15:55:17.340Z,101864.09
2019-04-11T15:57:47.672Z,101866.53
2019-04-11T16:00:36.943Z,101861.82
2019-04-11T16:03:07.207Z,101858.53
2019-04-11T16:05:56.985Z,101866.16
2019-04-11T16:08:28.744Z,101864.04
2019-04-11T16:11:03.125Z,101864.53
2019-04-11T16:13:44.337Z,101861.20
2019-04-11T16:16:14.323Z,101859.57
2019-04-11T16:18:47.151Z,101858.90
2019-04-11T16:21:23.955Z,101856.59
2019-04-11T16:24:11.050Z,101862.78
2019-04-11T16:26:45.697Z,101853.48
2019-04-11T16:29:23.052Z,101856.65
2019-04-11T16:31:54.681Z,101859.16
2019-04-11T16:34:26.295Z,101859.88
2019-04-11T16:36:57.354Z,101856.42
2019-04-11T16:39:47.717Z,101857.88
2019-04-11T16:42:17.334Z,101857.86
2019-04-11T16:44:57.975Z,101862.27
2019-04-11T16:47:35.749Z,101862.12
2019-04-11T16:50:06.384Z,101862.00
2019-04-11T16:52:38.573Z,101859.19
2019-04-11T16:55:10.025Z,101860.34
2019-04-11T16:57:43.872Z,101868.58
2019-04-11T17:00:13.032Z,101868.44
2019-04-11T17:02:43.094Z,101871.78
2019-04-11T17:05:13.144Z,101873.82
2019-04-11T17:08:02.862Z,101868.36
2019-04-11T17:10:50.749Z,101874.85
2019-04-11T17:13:20.920Z,101875.65
2019-04-11T17:15:50.894Z,101878.25
2019-04-11T17:18:20.965Z,101878.20
2019-04-11T17:20:50.982Z,101878.02
2019-04-11T17:23:20.970Z,101880.42
2019-04-11T17:25:52.930Z,101881.06
2019-04-11T17:28:23.672Z,101892.70
2019-04-11T17:30:55.733Z,101891.63
2019-04-11T17:33:27.753Z,101894.84
2019-04-11T17:35:57.175Z,101896.93
2019-04-11T17:38:27.255Z,101901.77
2019-04-11T17:40:57.310Z,101889.86
2019-04-11T17:43:27.446Z,101903.31
2019-04-11T17:45:57.732Z,101904.17
2019-04-11T17:48:28.005Z,101905.14
2019-04-11T17:50:58.011Z,101906.88
2019-04-11T17:53:28.135Z,101900.85
2019-04-11T17:55:58.207Z,101899.53
2019-04-11T17:58:28.237Z,101910.81
2019-04-11T18:01:00.462Z,101904.22
2019-04-11T18:03:30.838Z,101906.43
2019-04-11T18:06:00.838Z,101915.70
2019-04-11T18:08:30.847Z,101917.17
2019-04-11T18:11:00.928Z,101920.73
2019-04-11T18:13:32.023Z,101925.55
2019-04-11T18:16:02.003Z,101928.52
2019-04-11T18:18:34.805Z,101930.16
2019-04-11T18:21:06.965Z,101933.70
2019-04-11T18:23:36.102Z,101937.66
2019-04-11T18:26:06.578Z,101939.66
2019-04-11T18:28:38.096Z,101939.40
2019-04-11T18:31:08.205Z,101946.91
2019-04-11T18:33:38.199Z,101933.83
2019-04-11T18:36:08.197Z,101943.81
2019-04-11T18:38:39.430Z,101952.03
2019-04-11T18:41:09.566Z,101954.73
2019-04-11T18:43:39.637Z,101954.07
2019-04-11T18:46:10.095Z,101959.16
2019-04-11T18:48:40.162Z,101968.28
2019-04-11T18:51:10.499Z,101970.13
2019-04-11T18:53:40.619Z,101976.30
2019-04-11T18:56:10.582Z,101972.84
2019-04-11T18:58:41.705Z,101970.70
2019-04-11T19:01:12.052Z,101971.64
2019-04-11T19:03:42.173Z,101972.13
2019-04-11T19:06:13.112Z,101974.80
2019-04-11T19:08:44.066Z,101970.95
2019-04-11T19:11:15.853Z,101973.16
2019-04-11T19:13:47.010Z,101973.16
2019-04-11T19:16:17.725Z,101982.33
2019-04-11T19:18:48.954Z,101982.36
2019-04-11T19:21:21.064Z,101982.84
2019-04-11T19:23:50.603Z,101988.05
2019-04-11T19:26:22.785Z,101989.34
2019-04-11T19:28:54.986Z,101985.86
2019-04-11T19:31:27.169Z,101994.56
2019-04-11T19:33:56.057Z,101990.24
2019-04-11T19:36:26.050Z,101994.58
2019-04-11T19:38:56.241Z,101993.31
2019-04-11T19:41:26.286Z,101996.37
2019-04-11T19:43:56.326Z,101998.55
2019-04-11T19:46:26.339Z,102005.89
2019-04-11T19:48:59.271Z,101999.83
2019-04-11T19:51:29.059Z,102004.59
2019-04-11T19:54:02.986Z,102001.98
2019-04-11T19:56:35.593Z,102008.50
2019-04-11T19:59:05.587Z,102008.06
2019-04-11T20:01:35.725Z,102015.43
2019-04-11T20:04:06.814Z,102014.55
2019-04-11T20:06:36.862Z,102024.06
2019-04-11T20:09:08.698Z,102028.79
2019-04-11T20:11:38.956Z,102034.05
2019-04-11T20:14:09.022Z,102032.74
2019-04-11T20:16:41.972Z,102035.77
2019-04-11T20:19:10.787Z,102029.70
2019-04-11T20:21:41.164Z,102034.03
2019-04-11T20:24:14.162Z,102032.30
2019-04-11T20:26:42.948Z,102037.41
2019-04-11T20:29:13.057Z,102037.39
2019-04-11T20:31:43.061Z,102029.64
2019-04-11T20:34:13.090Z,102031.26
2019-04-11T20:36:43.081Z,102032.94
2019-04-11T20:39:15.265Z,102039.83
2019-04-11T20:41:44.928Z,102029.09
2019-04-11T20:44:14.914Z,102039.41
2019-04-11T20:46:45.060Z,102032.95
2019-04-11T20:49:15.044Z,102040.77
2019-04-11T20:51:45.072Z,102041.48
2019-04-11T20:54:15.086Z,102048.01
2019-04-11T20:56:45.096Z,102049.42
2019-04-11T20:59:15.136Z,102054.06
2019-04-11T21:01:45.139Z,102054.83
2019-04-11T21:04:15.137Z,102063.91
2019-04-11T21:06:45.142Z,102062.56
2019-04-11T21:09:15.223Z,102060.78
2019-04-11T21:11:45.212Z,102068.08
2019-04-11T21:14:15.203Z,102058.62
2019-04-11T21:16:45.256Z,102066.34
2019-04-11T21:19:15.252Z,102062.48
2019-04-11T21:21:45.481Z,102060.41
2019-04-11T21:24:16.539Z,102062.08
2019-04-11T21:26:46.542Z,102061.88
2019-04-11T21:29:16.565Z,102060.45
2019-04-11T21:31:46.567Z,102066.53
2019-04-11T21:34:16.575Z,102066.42
2019-04-11T21:36:46.573Z,102072.47
2019-04-11T21:39:16.638Z,102068.98
2019-04-11T21:41:46.636Z,102071.97
2019-04-11T21:44:16.738Z,102073.27
2019-04-11T21:46:49.180Z,102073.63
2019-04-11T21:49:18.422Z,102074.05
2019-04-11T21:51:48.440Z,102066.59
2019-04-11T21:54:18.435Z,102080.80
2019-04-11T21:56:49.605Z,102078.68
2019-04-11T21:59:21.050Z,102078.59
2019-04-11T22:01:53.798Z,102074.20
2019-04-11T22:04:26.876Z,102072.08
2019-04-11T22:06:55.006Z,102076.70
2019-04-11T22:09:25.324Z,102084.98
2019-04-11T22:11:55.352Z,102086.75
2019-04-11T22:14:25.555Z,102084.12
2019-04-11T22:16:55.540Z,102085.06
2019-04-11T22:19:25.541Z,102081.73
2019-04-11T22:21:55.561Z,102086.33
2019-04-11T22:24:26.620Z,102094.91
2019-04-11T22:26:56.636Z,102089.16
2019-04-11T22:29:26.627Z,102091.75
2019-04-11T22:31:57.588Z,102097.13
2019-04-11T22:34:38.086Z,102099.66
2019-04-11T22:37:08.266Z,102102.74
2019-04-11T22:39:38.264Z,102102.50
2019-04-11T22:42:08.375Z,102103.27
2019-04-11T22:44:38.682Z,102103.50
2019-04-11T22:47:08.792Z,102095.73
2019-04-11T22:49:39.377Z,102095.73
2019-04-11T22:52:11.447Z,102104.47
2019-04-11T22:54:42.272Z,102089.70
2019-04-11T22:57:12.930Z,102118.15
2019-04-11T22:59:45.008Z,102100.61
2019-04-11T23:02:17.664Z,102100.61
2019-04-11T23:04:48.142Z,102106.17
2019-04-11T23:07:18.519Z,102109.16
2019-04-11T23:09:49.488Z,102112.12
2019-04-11T23:12:19.604Z,102110.52
2019-04-11T23:14:49.602Z,102105.73
2019-04-11T23:17:19.664Z,102114.53
2019-04-11T23:19:49.650Z,102116.05
2019-04-11T23:22:19.800Z,102116.05
2019-04-11T23:24:49.746Z,102118.13
2019-04-11T23:27:19.764Z,102120.88
2019-04-11T23:29:49.945Z,102120.88
2019-04-11T23:32:21.221Z,102122.72
2019-04-11T23:34:52.656Z,102119.85
2019-04-11T23:37:23.440Z,102123.48
2019-04-11T23:39:55.003Z,102126.84
2019-04-11T23:42:25.060Z,102126.27
2019-04-11T23:44:55.122Z,102128.91
2019-04-11T23:47:25.144Z,102130.08
2019-04-11T23:49:56.059Z,102128.02
2019-04-11T23:52:26.707Z,102128.02
2019-04-11T23:54:58.302Z,102135.55
2019-04-11T23:57:31.280Z,102138.23
